OEHL

Hail Airport

Saudi Arabia
TAF OEHL 182300Z 1900/2006 36006KT 8000 NSC BECMG 1906/1908 08013KT
Issued Valid From Valid To
Jan-18 @ 23:00 UTC
(4 hours ago)
Jan-19 @ 00:00 UTC
(3 hours ago)
Jan-20 @ 06:00 UTC
(-1 days ago)
Jan-19 @ 00:00 to Jan-19 @ 06:00
TAF OEHL 182300Z 1900/2006 36006KT 8000 NSC
Wind Visibility Clouds
360° at 6 knots 7,998 meters
  • No significant clouds
Becoming Jan-19 @ 06:00 to Jan-20 @ 06:00
BECMG 1906/1908 08013KT
Wind Visibility Clouds
80° at 13 knots 7,998 meters
  • No significant clouds
TAF OEHL 182300Z 1900/2006 36006KT 8000 NSC BECMG 1906/1908 08013KT
Issued Jan-18 @ 23:00 UTC
(4 hours ago)
Valid From Jan-19 @ 00:00 UTC
(3 hours ago)
Valid To Jan-20 @ 06:00 UTC
(-1 days ago)
Jan-19 @ 00:00 - Jan-19 @ 06:00
Wind Visibility
360° at 6 knots 7,998 meters
Clouds
  • No significant clouds
Becoming Jan-19 @ 06:00 - Jan-20 @ 06:00
Wind Visibility
80° at 13 knots 7,998 meters
Clouds
  • No significant clouds